Time;durP1;ratioP1;P1;durP2;ratioP2;P2;SDS_P1;SDS_P2;PMS_P1;PMS_P2;Temp;Humidity;BMP_temperature;BMP_pressure;BME280_temperature;BME280_humidity;BME280_pressure;Samples;Min_cycle;Max_cycle;Signal;HPM_P1;HPM_P2
2022/06/27 00:02:25;;;;;;;2.87;2.67;;;21.10;63.80;;;20.56;60.38;97467.50;5030495;27;20456;-84
2022/06/27 00:04:53;;;;;;;2.87;2.67;;;21.20;63.90;;;20.59;60.38;97453.19;5028388;27;20499;-81
2022/06/27 00:07:20;;;;;;;3.50;3.30;;;21.20;63.90;;;20.07;60.52;97377.03;5041416;27;20989;-84
2022/06/27 00:09:48;;;;;;;3.40;3.10;;;21.20;64.10;;;20.54;60.76;97445.00;5032054;27;20462;-82
2022/06/27 00:12:15;;;;;;;2.90;2.73;;;21.20;64.40;;;20.01;61.17;97375.47;5029579;28;20453;-84
2022/06/27 00:14:43;;;;;;;2.77;2.60;;;21.10;64.60;;;20.37;61.12;97440.84;5026814;27;20455;-83
2022/06/27 00:17:11;;;;;;;2.90;2.60;;;21.10;64.80;;;20.20;61.27;97408.44;5026774;27;20475;-83
2022/06/27 00:19:39;;;;;;;3.30;2.70;;;21.10;65.10;;;20.44;61.40;97445.97;5031398;27;20461;-88
2022/06/27 00:22:07;;;;;;;3.07;2.77;;;21.10;65.40;;;20.36;61.49;97443.91;5027712;27;20558;-86
2022/06/27 00:24:35;;;;;;;3.20;3.00;;;21.10;65.50;;;20.35;61.95;97465.00;5031209;27;20466;-82
2022/06/27 00:27:02;;;;;;;2.93;2.63;;;21.10;65.90;;;20.13;61.70;97405.22;5031561;27;20448;-82
2022/06/27 00:29:30;;;;;;;3.00;2.80;;;21.10;66.20;;;20.51;61.55;97459.31;5031949;28;20463;-83
2022/06/27 00:31:57;;;;;;;2.60;2.50;;;21.20;66.30;;;20.50;61.80;97454.94;5028024;28;20457;-86
2022/06/27 00:34:26;;;;;;;2.90;2.70;;;21.20;66.50;;;20.47;61.95;97467.34;5031669;27;20477;-85
2022/06/27 00:36:54;;;;;;;2.97;2.80;;;21.10;66.70;;;20.04;62.00;97412.47;5057171;27;20511;-83
2022/06/27 00:39:21;;;;;;;3.30;3.03;;;21.10;66.80;;;20.44;62.21;97476.16;5054184;27;20472;-86
2022/06/27 00:41:48;;;;;;;3.43;3.20;;;21.10;67.00;;;20.59;61.85;97469.66;5029810;28;20453;-83
2022/06/27 00:44:32;;;;;;;3.83;3.03;;;21.20;67.10;;;20.75;61.38;97480.44;5031619;27;20474;-82
2022/06/27 00:46:59;;;;;;;3.50;3.23;;;21.30;67.00;;;20.68;61.37;97480.78;5046201;27;20455;-83
2022/06/27 00:49:28;;;;;;;3.10;2.90;;;21.30;66.80;;;20.60;61.57;97476.78;5036751;27;20458;-83
2022/06/27 00:51:56;;;;;;;2.90;2.70;;;21.30;67.00;;;20.29;62.17;97460.72;5032344;27;20636;-84
2022/06/27 00:54:24;;;;;;;3.33;3.00;;;21.20;67.40;;;20.28;62.92;97497.47;5042406;27;20452;-84
2022/06/27 00:56:53;;;;;;;3.70;3.50;;;21.00;67.70;;;20.14;63.39;97502.00;5040953;27;20467;-85
2022/06/27 00:59:21;;;;;;;4.33;3.10;;;20.90;68.30;;;19.87;63.84;97464.97;5046539;28;20469;-85
2022/06/27 01:01:48;;;;;;;3.30;3.10;;;20.80;68.90;;;20.04;64.13;97497.47;5048124;27;20454;-85
2022/06/27 01:04:16;;;;;;;2.80;2.70;;;20.70;69.40;;;19.91;64.60;97487.94;5041382;27;20985;-86
2022/06/27 01:06:45;;;;;;;3.03;2.83;;;20.70;69.90;;;19.97;65.04;97503.28;5027870;28;20447;-87
2022/06/27 01:09:12;;;;;;;3.83;3.53;;;20.60;70.30;;;19.94;64.91;97506.59;5040152;28;20447;-85
2022/06/27 01:11:40;;;;;;;3.77;3.07;;;20.70;70.90;;;19.96;64.76;97515.34;5040914;27;20512;-84
2022/06/27 01:14:08;;;;;;;3.10;2.90;;;20.60;71.10;;;19.94;64.86;97515.63;5044609;28;20462;-84
2022/06/27 01:16:35;;;;;;;3.23;3.03;;;20.60;71.30;;;19.85;65.17;97502.81;5033183;27;20470;-84
2022/06/27 01:19:03;;;;;;;3.57;3.37;;;20.60;72.10;;;19.90;65.44;97511.00;5024799;28;21100;-83
2022/06/27 01:21:34;;;;;;;3.50;3.20;;;20.50;72.10;;;19.88;65.66;97515.94;5023178;28;20456;-83
2022/06/27 01:24:03;;;;;;;3.93;3.60;;;20.50;72.50;;;19.88;65.49;97511.28;5025356;28;20530;-84
2022/06/27 01:26:31;;;;;;;3.57;3.27;;;20.50;72.60;;;19.65;65.21;97474.50;5023312;27;20457;-84
2022/06/27 01:28:58;;;;;;;4.70;3.53;;;20.60;72.90;;;19.81;65.78;97506.16;5026783;27;20650;-82
2022/06/27 01:31:27;;;;;;;3.60;3.37;;;20.50;73.20;;;19.61;65.64;97490.72;5024930;27;20451;-82
2022/06/27 01:33:55;;;;;;;3.67;3.30;;;20.50;73.50;;;19.85;66.29;97517.31;5025622;27;20465;-87
2022/06/27 01:39:06;;;;;;;4.67;4.30;;;20.50;74.00;;;19.88;66.05;97521.44;5021051;28;20485;-82
2022/06/27 01:41:33;;;;;;;3.80;3.60;;;20.60;74.30;;;19.81;66.22;97522.59;5036774;28;21140;-81
2022/06/27 01:44:01;;;;;;;3.87;3.67;;;20.50;74.30;;;19.61;66.50;97476.19;5025260;27;20478;-84
2022/06/27 01:46:43;;;;;;;4.00;3.10;;;20.50;74.70;;;19.74;65.96;97491.94;5018614;28;20491;-83
2022/06/27 01:49:12;;;;;;;4.87;4.57;;;20.60;74.70;;;19.83;66.56;97519.53;5041276;28;20461;-83
2022/06/27 01:51:41;;;;;;;4.13;3.83;;;20.50;75.00;;;19.74;66.93;97511.13;5024266;28;20466;-82
2022/06/27 01:54:11;;;;;;;3.60;3.40;;;20.50;75.20;;;19.67;67.30;97516.16;5039599;27;20447;-83
2022/06/27 01:56:40;;;;;;;4.23;3.93;;;20.40;75.50;;;19.64;67.73;97535.91;5049695;27;20475;-84
2022/06/27 01:59:07;;;;;;;4.13;3.83;;;20.40;76.00;;;19.58;67.23;97526.06;5027405;27;20527;-83
2022/06/27 02:01:36;;;;;;;4.87;4.57;;;20.40;76.10;;;19.53;67.41;97538.72;5038809;27;20458;-83
2022/06/27 02:04:05;;;;;;;4.37;4.07;;;20.40;76.20;;;19.71;67.44;97555.56;5025968;28;20465;-84
2022/06/27 02:06:33;;;;;;;4.87;4.57;;;20.40;76.60;;;19.92;67.06;97621.19;5038686;28;20453;-85
2022/06/27 02:09:04;;;;;;;4.23;3.93;;;20.50;76.60;;;20.19;65.93;97669.22;5027288;28;20702;-86
2022/06/27 02:11:34;;;;;;;4.30;4.00;;;20.80;76.20;;;20.30;64.70;97700.97;5026963;28;20466;-86
2022/06/27 02:14:01;;;;;;;4.00;3.70;;;21.00;75.10;;;20.32;64.68;97700.66;5031275;28;20461;-89
2022/06/27 02:16:29;;;;;;;3.63;3.43;;;21.00;74.70;;;20.31;63.28;97677.06;5034603;27;20453;-87
2022/06/27 02:18:57;;;;;;;3.30;3.10;;;21.10;73.70;;;20.52;61.99;97716.13;5058920;27;20496;-84
2022/06/27 02:21:26;;;;;;;3.60;3.30;;;21.20;72.60;;;20.74;60.68;97707.41;5035064;27;20504;-85
2022/06/27 02:23:55;;;;;;;3.30;3.10;;;21.30;71.40;;;20.69;61.02;97712.13;5025944;28;20451;-85
2022/06/27 02:26:25;;;;;;;3.30;3.10;;;21.40;71.20;;;20.72;60.58;97706.09;5025324;28;20465;-85
2022/06/27 02:28:55;;;;;;;3.70;2.80;;;21.40;71.00;;;20.80;59.89;97710.94;5028159;28;20457;-87
2022/06/27 02:31:23;;;;;;;3.87;3.57;;;21.50;70.50;;;20.45;59.73;97666.28;5030006;27;20913;-83
2022/06/27 02:33:53;;;;;;;2.80;2.60;;;21.50;70.10;;;20.83;59.29;97715.88;5030222;27;20453;-83
2022/06/27 02:36:27;;;;;;;3.00;2.70;;;21.50;69.40;;;20.93;59.26;97731.44;5026550;28;20458;-83
2022/06/27 02:38:57;;;;;;;2.90;2.70;;;21.60;69.30;;;21.04;58.97;97771.38;5029962;28;20489;-85
2022/06/27 02:41:28;;;;;;;2.47;2.37;;;21.60;69.10;;;20.86;58.84;97759.22;5030920;27;20483;-86
2022/06/27 02:44:09;;;;;;;2.93;2.73;;;21.70;68.90;;;20.79;62.19;97816.34;5021606;28;20462;-85
2022/06/27 02:46:36;;;;;;;4.63;3.80;;;21.60;71.00;;;20.46;65.77;97840.75;5041711;27;20463;-85
2022/06/27 02:49:05;;;;;;;4.27;3.80;;;21.30;74.50;;;20.04;67.41;97810.03;5029546;27;20964;-84
2022/06/27 02:51:41;;;;;;;4.50;4.20;;;21.10;76.50;;;19.62;68.93;97752.63;5027497;28;20509;-87
2022/06/27 02:54:12;;;;;;;5.70;5.20;;;20.90;78.20;;;19.86;72.00;97822.41;5027533;28;20693;-85
2022/06/27 02:56:44;;;;;;;5.60;5.30;;;20.70;81.00;;;19.50;74.93;97821.47;5012814;28;20463;-86
2022/06/27 02:59:19;;;;;;;6.63;6.13;;;20.40;84.00;;;19.25;77.64;97817.69;5036001;28;20466;-85
2022/06/27 03:01:50;;;;;;;6.97;6.30;;;20.10;87.80;;;19.00;78.51;97807.59;5024590;28;20465;-83
2022/06/27 03:04:17;;;;;;;8.60;6.80;;;20.00;90.00;;;19.07;79.66;97829.22;5025858;28;20461;-88
2022/06/27 03:06:46;;;;;;;6.90;6.50;;;19.90;91.10;;;19.11;80.35;97816.59;5025101;27;20512;-85
2022/06/27 03:09:14;;;;;;;7.90;7.20;;;19.90;92.10;;;19.00;81.48;97787.59;5040583;28;20469;-86
2022/06/27 03:11:43;;;;;;;8.20;7.60;;;19.90;93.10;;;19.03;82.22;97800.72;5032593;28;20538;-86
2022/06/27 03:14:12;;;;;;;9.13;8.43;;;19.80;93.70;;;18.88;82.98;97804.28;5029036;28;20451;-87
2022/06/27 03:16:40;;;;;;;10.70;8.50;;;19.70;93.90;;;18.79;83.31;97793.88;5034542;28;20466;-83
2022/06/27 03:19:07;;;;;;;10.20;8.80;;;19.60;94.40;;;18.55;84.66;97744.38;5038961;28;20539;-82
2022/06/27 03:21:35;;;;;;;9.93;9.23;;;19.50;95.10;;;18.63;85.33;97754.78;5047173;28;20450;-82
2022/06/27 03:24:02;;;;;;;10.00;9.17;;;19.50;95.70;;;18.48;86.49;97749.31;5033744;28;20465;-87
2022/06/27 03:26:29;;;;;;;14.10;10.30;;;19.40;96.70;;;18.43;88.74;97727.44;5029272;28;20897;-81
2022/06/27 03:28:57;;;;;;;11.60;10.43;;;19.30;98.50;;;17.91;90.78;97665.34;5027717;28;20443;-81
2022/06/27 03:31:26;;;;;;;10.93;10.23;;;19.10;99.90;;;17.64;92.95;97660.09;5020293;28;20824;-81
2022/06/27 03:33:54;;;;;;;12.87;11.80;;;18.80;99.90;;;17.78;93.60;97715.88;5017444;28;20448;-82
2022/06/27 03:36:22;;;;;;;12.60;11.30;;;18.70;99.90;;;17.44;94.71;97677.25;5049757;27;20944;-84
2022/06/27 03:38:49;;;;;;;12.83;11.93;;;18.60;99.90;;;17.65;94.42;97699.97;5034221;28;20467;-81
2022/06/27 03:41:17;;;;;;;14.07;12.90;;;18.60;99.90;;;17.58;95.15;97699.44;5046429;28;20450;-83
2022/06/27 03:43:44;;;;;;;14.60;13.50;;;18.50;99.90;;;17.28;96.14;97663.56;5030326;28;20895;-82
2022/06/27 03:46:12;;;;;;;13.43;12.33;;;18.50;99.90;;;17.58;97.33;97697.50;5031168;27;20458;-81
2022/06/27 03:51:26;;;;;;;14.10;12.73;;;18.40;99.90;;;17.35;97.62;97641.47;5030557;27;20545;-81
2022/06/27 03:53:53;;;;;;;14.10;12.97;;;18.40;99.90;;;17.18;96.41;97582.47;5025313;28;20455;-87
2022/06/27 03:56:21;;;;;;;12.97;11.87;;;18.30;99.90;;;17.42;97.41;97592.91;5041148;28;20451;-82
2022/06/27 03:58:48;;;;;;;12.73;11.73;;;18.30;99.90;;;17.01;97.53;97524.56;5024124;27;20470;-82
2022/06/27 04:01:16;;;;;;;13.37;12.37;;;18.30;99.90;;;16.89;98.53;97498.31;5024780;28;20453;-83
2022/06/27 04:03:44;;;;;;;13.40;12.40;;;18.30;99.90;;;17.37;98.23;97584.72;5026148;27;20461;-83
2022/06/27 04:06:12;;;;;;;14.07;12.97;;;18.20;99.90;;;17.15;98.41;97555.72;5022958;28;20462;-84
2022/06/27 04:08:40;;;;;;;14.47;13.17;;;18.20;99.90;;;17.48;97.86;97591.81;5021007;27;21193;-80
2022/06/27 04:11:07;;;;;;;14.80;13.57;;;18.30;99.90;;;17.34;98.09;97596.97;5036158;27;20450;-78
2022/06/27 04:13:34;;;;;;;14.00;12.87;;;18.20;99.90;;;17.33;99.05;97602.69;5025724;28;20459;-78
2022/06/27 04:16:01;;;;;;;13.07;12.07;;;18.20;99.90;;;17.43;97.67;97591.81;5021072;27;20447;-78
2022/06/27 04:18:29;;;;;;;13.67;12.60;;;18.30;99.90;;;17.56;98.26;97604.94;5024151;28;20467;-77
2022/06/27 04:20:57;;;;;;;13.80;12.70;;;18.30;99.90;;;17.48;98.96;97607.38;5014663;28;24092;-76
2022/06/27 04:23:25;;;;;;;14.30;13.20;;;18.30;99.90;;;17.49;98.59;97609.81;5032533;28;20462;-76
2022/06/27 04:25:53;;;;;;;12.90;11.90;;;18.30;99.90;;;17.44;97.70;97601.63;5020534;27;20459;-76
2022/06/27 04:28:20;;;;;;;12.97;12.03;;;18.30;99.90;;;17.34;97.80;97586.06;5029246;27;20541;-76
2022/06/27 04:30:48;;;;;;;12.53;11.53;;;18.30;99.90;;;17.58;97.84;97609.31;5022974;28;20454;-77
2022/06/27 04:33:15;;;;;;;13.60;12.60;;;18.40;99.90;;;17.65;97.16;97605.22;5022666;27;20505;-78
2022/06/27 04:35:46;;;;;;;12.67;11.57;;;18.50;99.90;;;17.62;96.61;97591.28;5016312;27;20459;-77
2022/06/27 04:38:16;;;;;;;13.60;12.60;;;18.60;99.90;;;17.97;94.29;97592.38;5023875;28;20471;-75
2022/06/27 04:40:44;;;;;;;11.37;10.50;;;18.80;99.90;;;18.15;92.62;97606.63;5022808;28;20551;-76
2022/06/27 04:43:12;;;;;;;10.90;10.10;;;18.90;99.90;;;18.20;90.69;97599.22;5026742;28;20455;-79
2022/06/27 04:45:40;;;;;;;11.07;10.17;;;19.10;99.90;;;18.47;90.84;97613.66;5022800;28;20463;-79
2022/06/27 04:48:09;;;;;;;10.47;9.67;;;19.20;99.90;;;18.86;88.25;97606.72;5022830;28;20473;-79
2022/06/27 04:50:37;;;;;;;9.60;8.80;;;19.60;97.90;;;19.42;86.52;97602.88;5020317;28;20459;-77
2022/06/27 04:53:04;;;;;;;9.97;9.17;;;20.20;96.20;;;20.03;84.01;97589.03;5036686;27;20462;-79
2022/06/27 04:55:33;;;;;;;8.90;8.10;;;20.80;94.30;;;20.58;81.48;97579.69;5020599;27;20483;-79
2022/06/27 04:58:01;;;;;;;8.20;7.33;;;21.50;92.50;;;21.74;72.78;97590.53;5023780;27;20952;-77
2022/06/27 05:00:29;;;;;;;7.67;6.97;;;22.40;88.50;;;22.20;68.95;97530.38;5023762;28;20550;-78
2022/06/27 05:02:56;;;;;;;7.27;6.73;;;23.30;86.50;;;23.43;64.44;97592.34;5024235;28;20461;-76
2022/06/27 05:05:24;;;;;;;6.13;5.73;;;24.00;83.50;;;23.49;62.92;97590.28;5019334;28;20457;-76
2022/06/27 05:07:51;;;;;;;7.33;6.63;;;24.30;81.60;;;22.77;66.59;97603.63;5039641;27;20455;-82
2022/06/27 05:10:19;;;;;;;6.90;6.50;;;24.00;82.60;;;22.88;67.03;97594.03;5019667;28;20816;-81
2022/06/27 05:12:48;;;;;;;7.27;6.57;;;24.20;82.60;;;24.02;63.47;97597.03;5026437;27;20484;-82
2022/06/27 05:15:15;;;;;;;6.93;6.53;;;25.00;81.50;;;25.61;58.86;97586.56;5031869;28;20827;-83
2022/06/27 05:17:43;;;;;;;6.60;6.10;;;26.10;79.20;;;25.44;56.85;97585.41;5020426;28;20949;-81
2022/06/27 05:20:11;;;;;;;6.70;6.20;;;26.70;75.50;;;25.55;56.79;97585.91;5035630;27;20940;-82
2022/06/27 05:22:40;;;;;;;6.17;5.77;;;27.20;73.70;;;25.73;55.38;97561.84;5025178;28;20477;-80
2022/06/27 05:25:09;;;;;;;6.20;5.70;;;27.10;72.90;;;25.83;56.00;97579.22;5024689;27;20466;-79
2022/06/27 05:27:37;;;;;;;6.37;5.97;;;27.00;72.50;;;25.30;57.30;97581.97;5021850;28;20541;-79
2022/06/27 05:30:09;;;;;;;5.47;5.07;;;26.70;72.70;;;26.07;54.17;97526.09;5025140;27;20465;-79
2022/06/27 05:32:36;;;;;;;6.47;5.70;;;27.40;71.70;;;25.71;55.27;97575.19;5021057;27;20465;-78
2022/06/27 05:35:04;;;;;;;6.80;6.30;;;27.20;70.60;;;24.72;57.45;97590.25;5020874;28;20529;-80
2022/06/27 05:37:32;;;;;;;6.07;5.57;;;26.20;71.90;;;25.00;58.22;97590.03;5025310;28;20462;-79
2022/06/27 05:40:00;;;;;;;6.63;5.97;;;25.90;73.60;;;24.47;58.31;97601.69;5040875;27;20449;-78
2022/06/27 05:42:28;;;;;;;6.20;5.70;;;25.80;73.00;;;23.77;60.71;97596.53;5033789;27;20512;-77
2022/06/27 05:44:55;;;;;;;5.50;5.10;;;25.20;73.90;;;23.31;61.48;97605.84;5022720;28;20462;-78
2022/06/27 05:47:25;;;;;;;5.70;5.20;;;24.60;74.80;;;23.36;61.61;97602.97;5020672;27;20461;-77
2022/06/27 05:49:53;;;;;;;5.50;5.10;;;24.30;75.40;;;24.23;59.09;97599.28;5018964;28;20484;-77
2022/06/27 05:52:20;;;;;;;6.40;5.83;;;24.80;75.40;;;24.21;58.90;97609.00;5013478;28;20549;-79
2022/06/27 05:54:48;;;;;;;5.90;5.40;;;25.20;74.40;;;24.56;57.75;97615.53;5019524;28;20961;-77
2022/06/27 05:57:16;;;;;;;6.43;5.93;;;25.70;73.40;;;24.71;57.06;97586.66;5034889;28;20481;-77
2022/06/27 05:59:44;;;;;;;6.37;5.87;;;26.00;72.80;;;24.66;57.40;97619.16;5023428;28;20482;-77
2022/06/27 06:02:12;;;;;;;5.80;5.40;;;26.00;72.10;;;24.89;55.95;97617.94;5019744;28;20455;-79
2022/06/27 06:04:41;;;;;;;5.80;5.23;;;26.30;71.20;;;24.93;55.94;97623.66;5024636;28;20465;-78
2022/06/27 06:07:09;;;;;;;6.00;5.37;;;26.30;70.70;;;25.31;55.25;97625.84;5023884;28;20472;-79
2022/06/27 06:09:37;;;;;;;5.83;5.50;;;26.70;70.10;;;25.77;53.31;97616.50;5024930;28;20522;-79
2022/06/27 06:12:06;;;;;;;6.13;5.73;;;27.10;68.90;;;26.52;51.81;97613.47;5022155;28;21274;-79
2022/06/27 06:14:33;;;;;;;5.10;4.70;;;27.50;68.10;;;26.94;50.00;97581.53;5011708;28;20495;-78
2022/06/27 06:17:00;;;;;;;5.13;4.73;;;28.30;66.30;;;26.71;50.91;97620.56;5015171;27;20983;-79
2022/06/27 06:19:28;;;;;;;5.43;5.03;;;28.10;65.80;;;27.33;49.33;97629.41;5020955;28;20478;-79
2022/06/27 06:21:57;;;;;;;7.53;4.80;;;28.90;64.60;;;27.49;48.38;97623.25;5027923;28;20604;-79
2022/06/27 06:24:25;;;;;;;5.80;5.30;;;29.10;63.40;;;26.86;50.90;97628.34;5018225;28;20455;-81
2022/06/27 06:26:53;;;;;;;5.40;5.00;;;28.70;64.30;;;27.58;48.24;97629.59;5021915;28;20453;-79
2022/06/27 06:29:22;;;;;;;6.90;4.43;;;29.00;63.00;;;27.93;47.50;97634.84;5025205;28;20458;-79
2022/06/27 06:31:50;;;;;;;7.93;5.50;;;29.10;62.60;;;27.54;48.28;97628.66;5022925;28;20482;-78
2022/06/27 06:34:17;;;;;;;5.67;4.73;;;29.50;61.40;;;27.09;48.94;97636.41;5026816;28;20661;-80
2022/06/27 06:36:46;;;;;;;4.77;4.37;;;28.70;62.10;;;26.13;51.54;97635.50;5030554;28;20459;-79
2022/06/27 06:39:15;;;;;;;6.60;6.10;;;27.70;63.80;;;25.29;54.34;97644.72;5042473;28;20478;-85
2022/06/27 06:41:43;;;;;;;5.83;5.43;;;26.70;65.60;;;24.65;55.83;97656.97;5043284;28;20549;-80
2022/06/27 06:44:11;;;;;;;6.33;5.87;;;25.90;67.00;;;24.26;56.79;97655.78;5050609;27;20448;-81
2022/06/27 06:46:38;;;;;;;5.63;5.30;;;25.40;68.00;;;24.50;56.27;97666.50;5025698;28;20538;-79
2022/06/27 06:49:06;;;;;;;5.40;5.10;;;25.30;68.90;;;24.56;56.14;97669.91;5042947;28;20474;-79
2022/06/27 06:51:36;;;;;;;6.70;6.10;;;25.30;69.20;;;24.43;56.63;97674.41;5039895;28;20453;-78
2022/06/27 06:54:05;;;;;;;6.10;5.70;;;25.20;69.60;;;24.39;56.89;97670.66;5045164;28;20450;-80
2022/06/27 06:56:36;;;;;;;5.70;5.30;;;25.20;69.80;;;24.19;57.61;97662.56;5035773;28;20438;-80
2022/06/27 06:59:04;;;;;;;6.37;5.77;;;25.00;70.50;;;24.50;56.63;97677.53;5027634;28;20478;-79
2022/06/27 07:01:35;;;;;;;7.03;6.33;;;25.10;70.50;;;24.49;57.11;97673.13;5030923;28;20533;-76
2022/06/27 07:04:03;;;;;;;6.80;6.30;;;25.10;70.80;;;24.05;58.79;97676.44;5026417;28;20447;-75
2022/06/27 07:06:31;;;;;;;7.13;6.53;;;24.90;71.40;;;24.07;58.08;97675.31;5044131;28;20500;-74
2022/06/27 07:09:01;;;;;;;7.10;6.13;;;24.90;71.30;;;23.98;58.27;97683.47;5031915;27;20455;-75
2022/06/27 07:11:31;;;;;;;6.93;6.23;;;24.70;71.40;;;24.28;57.53;97681.94;5025415;28;20456;-77
2022/06/27 07:14:01;;;;;;;6.03;5.70;;;24.80;71.40;;;24.35;57.50;97669.66;5029706;28;20997;-80
2022/06/27 07:16:28;;;;;;;6.83;5.50;;;25.00;71.40;;;24.69;55.76;97673.75;5030740;28;20464;-79
2022/06/27 07:18:56;;;;;;;7.63;6.30;;;25.30;70.70;;;24.86;55.93;97681.31;5054101;28;20467;-80
2022/06/27 07:21:25;;;;;;;6.27;5.87;;;25.40;70.70;;;24.86;55.61;97679.38;5021704;28;20526;-80
2022/06/27 07:23:53;;;;;;;6.00;5.57;;;25.50;70.20;;;25.01;55.42;97677.31;5021810;28;20450;-78
2022/06/27 07:26:22;;;;;;;5.57;5.27;;;25.70;70.10;;;25.05;56.11;97672.78;5034781;27;20481;-78
2022/06/27 07:28:51;;;;;;;5.83;5.43;;;25.70;70.20;;;24.96;55.52;97663.66;5021736;28;20895;-80
2022/06/27 07:31:19;;;;;;;5.90;5.47;;;25.70;70.00;;;25.33;54.25;97680.84;5022493;28;20503;-80
2022/06/27 07:33:53;;;;;;;6.07;5.60;;;25.90;69.50;;;25.76;53.67;97679.28;5020345;28;20476;-80
2022/06/27 07:36:25;;;;;;;6.17;5.40;;;26.20;69.10;;;25.72;53.24;97687.44;5026728;28;20458;-79
2022/06/27 07:38:54;;;;;;;5.57;5.17;;;26.30;68.60;;;25.70;52.51;97677.84;5013553;28;20480;-80
2022/06/27 07:41:23;;;;;;;8.93;6.00;;;26.40;67.80;;;25.22;54.00;97698.84;5021967;28;20455;-78
2022/06/27 07:43:51;;;;;;;5.93;5.43;;;26.20;67.70;;;25.35;53.28;97689.63;5019653;28;20454;-78
2022/06/27 07:46:21;;;;;;;6.40;6.00;;;26.10;67.90;;;25.27;54.00;97685.69;5033525;28;20787;-79
2022/06/27 07:48:49;;;;;;;6.53;6.00;;;26.10;68.00;;;25.22;53.66;97691.38;5036232;27;20835;-78
2022/06/27 07:51:19;;;;;;;6.23;5.80;;;26.00;68.10;;;25.46;53.85;97693.72;5018961;28;20556;-79
2022/06/27 07:53:48;;;;;;;7.17;6.57;;;26.10;68.30;;;25.38;54.82;97688.97;5024040;28;20458;-80
2022/06/27 07:56:17;;;;;;;7.33;6.80;;;26.00;68.90;;;25.07;55.50;97684.31;5024976;28;20988;-79
2022/06/27 07:58:45;;;;;;;6.77;6.37;;;25.80;69.60;;;24.87;56.72;97691.22;5021357;28;20476;-80
2022/06/27 08:01:14;;;;;;;8.27;6.50;;;25.70;70.50;;;25.07;56.79;97700.91;5016666;28;20469;-80
2022/06/27 08:03:48;;;;;;;7.23;6.73;;;25.70;71.00;;;24.97;56.54;97706.72;5032947;28;20493;-80
2022/06/27 08:06:18;;;;;;;7.70;7.20;;;25.70;70.70;;;24.93;57.18;97722.28;5015206;28;20462;-74
2022/06/27 08:08:49;;;;;;;7.40;6.90;;;25.60;71.80;;;24.70;57.39;97722.31;5020549;28;20462;-79
2022/06/27 08:11:19;;;;;;;7.30;6.80;;;25.50;71.20;;;24.68;58.44;97722.63;5012547;28;20469;-80
2022/06/27 08:13:47;;;;;;;10.33;9.43;;;25.40;72.10;;;24.46;59.47;97709.66;5019988;28;20464;-80
2022/06/27 08:16:15;;;;;;;8.60;8.00;;;25.30;73.10;;;24.08;61.32;97721.88;5019460;28;20469;-79
2022/06/27 08:18:47;;;;;;;8.67;8.07;;;24.90;74.40;;;24.11;62.33;97731.47;5024168;28;20508;-80
2022/06/27 08:21:17;;;;;;;9.47;8.87;;;24.80;75.60;;;24.28;61.92;97730.81;5031053;27;21031;-79
2022/06/27 08:23:46;;;;;;;9.03;8.43;;;24.90;76.00;;;24.14;62.90;97739.13;5022117;28;21085;-81
2022/06/27 08:26:14;;;;;;;9.07;8.43;;;24.80;76.30;;;23.64;63.50;97749.03;5023922;28;20463;-80
2022/06/27 08:28:47;;;;;;;9.30;8.50;;;24.50;76.80;;;23.87;63.56;97751.84;5024410;28;20457;-80
2022/06/27 08:31:15;;;;;;;9.20;8.57;;;24.50;77.40;;;23.87;62.75;97760.13;5025442;27;21239;-80
2022/06/27 08:33:46;;;;;;;8.07;7.40;;;24.50;76.90;;;23.97;62.25;97762.66;5023679;27;20458;-80
2022/06/27 08:36:15;;;;;;;8.43;7.93;;;24.60;76.80;;;23.94;62.10;97755.00;5044668;27;20457;-79
2022/06/27 08:38:48;;;;;;;8.50;7.90;;;24.60;76.80;;;24.10;61.60;97757.44;5027660;27;20560;-79
2022/06/27 08:41:16;;;;;;;8.13;7.53;;;24.80;76.30;;;24.22;60.94;97771.53;5024209;28;21020;-80
2022/06/27 08:43:46;;;;;;;6.90;6.50;;;24.80;76.10;;;24.11;59.95;97735.06;5021237;28;20746;-80
2022/06/27 08:46:15;;;;;;;7.40;6.90;;;25.00;75.50;;;24.50;59.67;97770.59;5023371;27;21345;-79
2022/06/27 08:48:45;;;;;;;8.00;7.50;;;25.10;75.10;;;24.45;60.69;97774.28;5019037;27;20458;-79
2022/06/27 08:51:13;;;;;;;8.33;7.73;;;25.10;75.70;;;24.73;59.78;97769.47;5018079;27;21842;-79
2022/06/27 08:53:41;;;;;;;8.17;7.60;;;25.30;75.70;;;25.26;59.48;97788.31;5024161;27;20847;-79
2022/06/27 08:56:12;;;;;;;7.60;7.00;;;25.70;75.50;;;25.45;58.51;97783.34;5022962;28;20485;-80
2022/06/27 08:58:40;;;;;;;9.40;7.90;;;26.00;75.00;;;24.71;60.25;97776.41;5019887;28;20568;-79
2022/06/27 09:01:10;;;;;;;9.23;8.10;;;25.60;75.00;;;24.33;61.40;97770.13;5027369;27;20473;-79
2022/06/27 09:03:37;;;;;;;9.70;8.90;;;25.20;75.80;;;24.45;61.22;97779.81;5009339;27;20519;-78
2022/06/27 09:06:10;;;;;;;9.13;8.23;;;25.10;76.30;;;24.17;61.98;97775.19;5022927;28;20532;-79
2022/06/27 09:08:55;;;;;;;8.30;7.60;;;24.90;76.50;;;24.18;61.30;97781.53;5038421;27;20461;-79
2022/06/27 09:11:28;;;;;;;7.70;7.10;;;24.80;76.30;;;24.57;60.91;97802.16;5029285;27;20526;-79
2022/06/27 09:13:56;;;;;;;7.93;7.33;;;25.00;76.20;;;24.61;60.10;97805.91;5023703;27;20464;-80
2022/06/27 09:16:24;;;;;;;8.57;7.93;;;25.20;75.40;;;24.47;60.02;97802.38;5021064;28;20558;-79
2022/06/27 09:18:51;;;;;;;7.53;6.93;;;25.10;75.30;;;24.82;58.67;97788.88;5019891;28;20461;-80
2022/06/27 09:21:21;;;;;;;7.27;6.67;;;25.40;74.80;;;25.02;58.15;97792.25;5016913;28;20877;-79
2022/06/27 09:23:50;;;;;;;7.10;6.60;;;25.60;74.30;;;25.01;58.22;97801.66;5023316;27;20509;-79
2022/06/27 09:26:21;;;;;;;6.50;6.00;;;25.70;74.00;;;25.16;57.71;97808.72;5022942;27;20470;-79
2022/06/27 09:28:53;;;;;;;6.60;6.10;;;25.80;73.30;;;24.58;58.19;97817.59;5021915;28;20565;-79
2022/06/27 09:31:36;;;;;;;5.83;5.33;;;25.40;73.10;;;24.15;59.42;97827.13;5025142;28;20469;-79
2022/06/27 09:34:09;;;;;;;5.90;5.40;;;25.00;73.60;;;24.22;59.42;97821.19;5018257;27;20503;-79
2022/06/27 09:36:40;;;;;;;6.70;5.90;;;25.00;73.90;;;24.46;58.61;97828.38;5024443;27;20454;-79
2022/06/27 09:39:17;;;;;;;8.50;6.17;;;25.00;73.80;;;24.58;57.89;97825.88;5024652;28;23169;-71
2022/06/27 09:41:46;;;;;;;8.20;6.20;;;25.20;73.50;;;24.50;58.33;97818.34;5026804;27;20466;-74
2022/06/27 09:44:16;;;;;;;7.87;6.90;;;25.20;73.30;;;24.42;58.38;97817.16;5028761;27;20458;-78
2022/06/27 09:46:51;;;;;;;5.80;5.37;;;25.00;73.20;;;24.75;57.97;97818.84;5034006;27;20482;-76
2022/06/27 09:49:21;;;;;;;5.83;5.53;;;25.30;73.50;;;24.58;58.73;97806.53;5034714;27;20461;-78
2022/06/27 09:51:50;;;;;;;6.13;5.50;;;25.20;73.60;;;24.44;58.82;97800.25;5019912;27;20496;-78
2022/06/27 09:54:20;;;;;;;5.57;5.17;;;25.00;73.60;;;24.44;59.01;97812.13;5022925;27;20466;-77
2022/06/27 09:56:50;;;;;;;6.43;5.97;;;25.00;73.60;;;23.91;60.46;97811.59;5021040;28;20854;-77
2022/06/27 09:59:18;;;;;;;6.30;5.80;;;24.70;74.00;;;24.08;60.18;97812.94;5022635;27;20481;-77
2022/06/27 10:01:46;;;;;;;6.07;5.63;;;24.60;74.60;;;24.00;60.25;97797.88;5026445;27;20461;-76
2022/06/27 10:04:13;;;;;;;5.73;5.37;;;24.70;74.50;;;24.09;60.61;97806.28;5016353;27;20959;-76
2022/06/27 10:06:43;;;;;;;5.60;4.80;;;24.70;75.00;;;24.08;60.10;97798.34;5038530;28;20454;-76
2022/06/27 10:09:16;;;;;;;6.67;6.17;;;24.80;74.60;;;23.91;60.28;97819.06;5021410;28;20465;-77
2022/06/27 10:11:43;;;;;;;4.70;4.40;;;24.70;74.40;;;24.04;60.15;97822.97;5005230;28;20512;-79
2022/06/27 10:14:22;;;;;;;4.87;4.57;;;24.70;74.60;;;24.51;57.96;97817.22;5019444;28;20477;-76
2022/06/27 10:16:56;;;;;;;4.43;4.10;;;25.10;73.70;;;24.32;59.16;97812.66;5018858;28;20972;-75
2022/06/27 10:19:25;;;;;;;4.23;3.90;;;25.00;74.10;;;24.03;59.60;97827.66;5021969;28;20490;-79
2022/06/27 10:21:54;;;;;;;4.83;4.43;;;24.80;73.80;;;24.07;59.77;97829.81;5016001;28;21289;-77
2022/06/27 10:24:33;;;;;;;4.67;4.37;;;24.70;74.20;;;24.04;59.15;97823.78;5031290;27;20454;-76
2022/06/27 10:27:05;;;;;;;4.80;4.40;;;24.80;73.60;;;24.00;59.06;97822.72;5037882;28;20522;-78
2022/06/27 10:29:38;;;;;;;4.67;4.23;;;24.70;73.60;;;23.69;59.70;97826.13;5020739;28;20465;-77
2022/06/27 10:32:07;;;;;;;4.67;4.10;;;24.40;73.50;;;23.66;59.78;97826.75;5029955;28;20504;-77